createdAt,value
2023-02-21T00:00:00.493Z,64.70
2023-02-21T00:02:45.933Z,64.40
2023-02-21T00:05:31.490Z,65.20
2023-02-21T00:08:16.786Z,65.50
2023-02-21T00:11:01.920Z,66.20
2023-02-21T00:13:47.448Z,66.20
2023-02-21T00:16:36.944Z,66.00
2023-02-21T00:19:22.763Z,66.50
2023-02-21T00:22:08.236Z,67.40
2023-02-21T00:24:53.601Z,67.30
2023-02-21T00:27:39.041Z,67.50
2023-02-21T00:30:25.354Z,67.50
2023-02-21T00:33:10.699Z,67.90
2023-02-21T00:35:56.065Z,67.50
2023-02-21T00:38:41.226Z,68.10
2023-02-21T00:41:26.932Z,68.30
2023-02-21T00:44:12.423Z,68.50
2023-02-21T00:46:57.873Z,69.40
2023-02-21T00:49:43.114Z,70.10
2023-02-21T00:52:28.557Z,70.00
2023-02-21T00:55:13.994Z,69.90
2023-02-21T00:57:59.427Z,70.20
2023-02-21T01:00:45.254Z,70.20
2023-02-21T01:03:30.756Z,70.10
2023-02-21T01:06:15.933Z,69.60
2023-02-21T01:09:05.570Z,70.40
2023-02-21T01:11:51.727Z,69.80
2023-02-21T01:14:37.013Z,69.90
2023-02-21T01:17:22.434Z,70.10
2023-02-21T01:20:07.926Z,69.90
2023-02-21T01:22:53.250Z,70.00
2023-02-21T01:25:39.188Z,70.30
2023-02-21T01:28:24.574Z,69.90
2023-02-21T01:31:09.943Z,70.10
2023-02-21T01:33:59.837Z,70.10
2023-02-21T01:36:45.985Z,70.20
2023-02-21T01:39:33.083Z,70.60
2023-02-21T01:42:18.825Z,70.60
2023-02-21T01:45:06.579Z,70.40
2023-02-21T01:47:52.174Z,69.90
2023-02-21T01:50:47.846Z,69.90
2023-02-21T01:53:40.051Z,69.80
2023-02-21T01:56:25.979Z,69.60
2023-02-21T01:59:14.659Z,69.70
2023-02-21T02:02:04.674Z,69.90
2023-02-21T02:04:52.099Z,69.90
2023-02-21T02:07:38.741Z,69.50
2023-02-21T02:10:28.195Z,69.60
2023-02-21T02:13:13.039Z,69.10
2023-02-21T02:16:02.116Z,70.10
2023-02-21T02:19:12.063Z,69.70
2023-02-21T02:21:42.254Z,69.80
2023-02-21T02:24:19.522Z,70.10
2023-02-21T02:27:07.769Z,69.50
2023-02-21T02:29:50.803Z,69.20
2023-02-21T02:33:05.758Z,69.90
2023-02-21T02:35:42.179Z,69.40
2023-02-21T02:38:27.650Z,69.60
2023-02-21T02:41:11.738Z,69.20
2023-02-21T02:43:45.969Z,68.90
2023-02-21T02:46:28.083Z,69.60
2023-02-21T02:49:10.430Z,70.10
2023-02-21T02:51:37.443Z,70.70
2023-02-21T02:54:05.940Z,71.70
2023-02-21T02:56:33.728Z,72.60
2023-02-21T02:59:08.034Z,72.00
2023-02-21T03:01:51.593Z,70.30
2023-02-21T03:04:33.100Z,69.60
2023-02-21T03:07:35.080Z,68.80
2023-02-21T03:10:12.170Z,69.20
2023-02-21T03:12:49.131Z,71.20
2023-02-21T03:15:42.107Z,70.80
2023-02-21T03:18:27.914Z,71.20
2023-02-21T03:20:57.889Z,71.20
2023-02-21T03:23:28.078Z,70.80
2023-02-21T03:26:01.489Z,70.80
2023-02-21T03:28:30.077Z,70.20
2023-02-21T03:31:00.119Z,70.50
2023-02-21T03:33:28.430Z,70.50
2023-02-21T03:35:55.318Z,69.90
2023-02-21T03:38:22.063Z,70.50
2023-02-21T03:40:49.564Z,71.60
2023-02-21T03:43:16.222Z,70.00
2023-02-21T03:45:53.930Z,70.80
2023-02-21T03:48:31.478Z,70.10
2023-02-21T03:51:04.783Z,71.40
2023-02-21T03:53:35.833Z,71.10
2023-02-21T03:56:03.629Z,70.40
2023-02-21T03:58:43.169Z,69.90
2023-02-21T04:01:09.926Z,69.40
2023-02-21T04:03:36.630Z,69.10
2023-02-21T04:06:04.629Z,69.70
2023-02-21T04:08:32.841Z,70.90
2023-02-21T04:10:59.552Z,70.70
2023-02-21T04:13:30.001Z,71.10
2023-02-21T04:15:57.241Z,70.70
2023-02-21T04:18:25.109Z,70.00
2023-02-21T04:20:53.701Z,70.40
2023-02-21T04:23:22.358Z,70.40
2023-02-21T04:25:49.589Z,70.10
2023-02-21T04:28:23.179Z,69.60
2023-02-21T04:30:49.992Z,69.50
2023-02-21T04:33:16.888Z,69.70
2023-02-21T04:35:44.818Z,70.10
2023-02-21T04:38:20.925Z,69.90
2023-02-21T04:40:47.595Z,70.30
2023-02-21T04:43:14.329Z,70.40
2023-02-21T04:45:41.062Z,70.60
2023-02-21T04:48:07.766Z,70.60
2023-02-21T04:50:34.451Z,70.40
2023-02-21T04:53:01.136Z,70.20
2023-02-21T04:55:27.825Z,70.00
2023-02-21T04:57:54.606Z,70.40
2023-02-21T05:00:21.608Z,70.60
2023-02-21T05:02:48.559Z,70.00
2023-02-21T05:05:15.316Z,70.70
2023-02-21T05:07:42.902Z,70.70
2023-02-21T05:10:10.901Z,70.50
2023-02-21T05:12:39.780Z,70.30
2023-02-21T05:15:07.698Z,70.20
2023-02-21T05:17:34.526Z,70.20
2023-02-21T05:20:01.609Z,70.20
2023-02-21T05:22:28.413Z,70.00
2023-02-21T05:24:55.074Z,70.30
2023-02-21T05:27:22.987Z,70.30
2023-02-21T05:29:51.475Z,69.90
2023-02-21T05:32:20.413Z,69.20
2023-02-21T05:34:47.861Z,69.10
2023-02-21T05:37:15.844Z,69.00
2023-02-21T05:39:42.891Z,69.00
2023-02-21T05:42:09.828Z,68.90
2023-02-21T05:44:36.706Z,69.00
2023-02-21T05:47:03.439Z,70.20
2023-02-21T05:49:30.162Z,70.00
2023-02-21T05:51:56.797Z,70.40
2023-02-21T05:54:23.556Z,69.90
2023-02-21T05:56:51.652Z,69.20
2023-02-21T05:59:20.618Z,69.00
2023-02-21T06:01:48.601Z,70.20
2023-02-21T06:04:15.473Z,69.80
2023-02-21T06:06:42.508Z,69.10
2023-02-21T06:09:09.525Z,69.70
2023-02-21T06:11:37.944Z,69.80
2023-02-21T06:14:07.821Z,69.60
2023-02-21T06:16:36.166Z,69.30
2023-02-21T06:19:04.203Z,69.00
2023-02-21T06:21:30.889Z,69.50
2023-02-21T06:23:57.615Z,69.30
2023-02-21T06:26:24.312Z,69.80
2023-02-21T06:28:51.800Z,69.70
2023-02-21T06:31:20.484Z,68.80
2023-02-21T06:33:48.409Z,69.50
2023-02-21T06:36:18.248Z,69.50
2023-02-21T06:38:52.947Z,69.70
2023-02-21T06:41:26.131Z,69.20
2023-02-21T06:43:57.449Z,69.10
2023-02-21T06:46:26.896Z,69.50
2023-02-21T06:48:53.903Z,70.10
2023-02-21T06:51:21.096Z,68.30
2023-02-21T06:53:50.336Z,70.60
2023-02-21T06:56:17.111Z,70.10
2023-02-21T06:58:43.816Z,69.70
2023-02-21T07:01:10.484Z,69.50
2023-02-21T07:03:43.139Z,68.60
2023-02-21T07:06:10.132Z,68.40
2023-02-21T07:08:36.874Z,68.60
2023-02-21T07:11:03.787Z,68.20
2023-02-21T07:13:30.503Z,67.90
2023-02-21T07:15:57.158Z,67.80
2023-02-21T07:18:23.931Z,67.40
2023-02-21T07:20:50.703Z,67.40
2023-02-21T07:23:17.415Z,67.00
2023-02-21T07:25:44.069Z,67.20
2023-02-21T07:28:11.474Z,67.70
2023-02-21T07:30:38.231Z,67.70
2023-02-21T07:33:04.964Z,67.50
2023-02-21T07:35:31.619Z,67.50
2023-02-21T07:37:58.370Z,67.10
2023-02-21T07:40:25.020Z,66.60
2023-02-21T07:42:51.702Z,66.00
2023-02-21T07:45:18.546Z,65.90
2023-02-21T07:47:48.056Z,65.30
2023-02-21T07:50:16.815Z,64.50
2023-02-21T07:52:43.678Z,64.10
2023-02-21T07:55:12.503Z,64.30
2023-02-21T07:57:39.326Z,63.50
2023-02-21T08:00:06.882Z,62.60
2023-02-21T08:02:39.869Z,62.40
2023-02-21T08:05:08.959Z,62.50
2023-02-21T08:07:35.678Z,62.40
2023-02-21T08:10:02.357Z,62.60
2023-02-21T08:12:28.998Z,62.50
2023-02-21T08:14:55.666Z,62.40
2023-02-21T08:17:22.333Z,61.90
2023-02-21T08:19:49.216Z,62.00
2023-02-21T08:22:15.983Z,61.70
2023-02-21T08:24:42.626Z,62.20
2023-02-21T08:27:09.298Z,62.00
2023-02-21T08:29:35.986Z,61.80
2023-02-21T08:32:02.762Z,61.30
2023-02-21T08:34:29.826Z,60.10
2023-02-21T08:36:56.894Z,59.90
2023-02-21T08:39:23.804Z,59.70
2023-02-21T08:41:52.302Z,59.30
2023-02-21T08:44:21.761Z,58.30
2023-02-21T08:46:49.821Z,58.00
2023-02-21T08:49:16.787Z,57.20
2023-02-21T08:51:43.471Z,56.80
2023-02-21T08:54:10.230Z,57.10
2023-02-21T08:56:36.898Z,57.30
2023-02-21T08:59:04.531Z,57.50
2023-02-21T09:01:35.523Z,58.40
2023-02-21T09:04:04.244Z,59.10
2023-02-21T09:06:31.424Z,59.00
2023-02-21T09:08:58.301Z,58.90
2023-02-21T09:11:24.952Z,58.70
2023-02-21T09:13:55.216Z,58.20
2023-02-21T09:16:22.525Z,57.80
2023-02-21T09:18:57.263Z,56.80
2023-02-21T09:21:23.939Z,56.80
2023-02-21T09:23:54.162Z,56.40
2023-02-21T09:26:24.018Z,56.20
2023-02-21T09:28:53.868Z,52.50
2023-02-21T09:31:21.123Z,51.30
2023-02-21T09:33:47.939Z,46.00
2023-02-21T09:36:16.244Z,44.90
2023-02-21T09:38:43.077Z,43.70
2023-02-21T09:41:14.159Z,43.70
2023-02-21T09:43:48.509Z,43.00
2023-02-21T09:46:31.054Z,43.90
2023-02-21T09:48:58.370Z,42.90
2023-02-21T09:51:26.140Z,43.20
2023-02-21T09:53:55.758Z,42.50
2023-02-21T09:56:36.356Z,42.30
2023-02-21T09:59:03.825Z,42.30
2023-02-21T10:02:09.597Z,43.20
2023-02-21T10:04:57.835Z,42.60
2023-02-21T10:07:54.092Z,42.30
2023-02-21T10:10:25.780Z,41.50
2023-02-21T10:12:56.077Z,41.80
2023-02-21T10:15:40.898Z,40.40
2023-02-21T10:18:23.029Z,39.70
2023-02-21T10:20:52.406Z,39.00
2023-02-21T10:23:22.498Z,37.30
2023-02-21T10:25:51.746Z,37.40
2023-02-21T10:28:22.151Z,36.60
2023-02-21T10:30:52.188Z,36.90
2023-02-21T10:33:19.039Z,37.10
2023-02-21T10:35:45.747Z,36.70
2023-02-21T10:38:16.441Z,36.30
2023-02-21T10:40:47.905Z,36.20
2023-02-21T10:43:22.426Z,35.20
2023-02-21T10:46:02.871Z,35.80
2023-02-21T10:48:35.374Z,35.90
2023-02-21T10:51:17.476Z,36.30
2023-02-21T10:53:47.876Z,34.90
2023-02-21T10:56:20.269Z,35.40
2023-02-21T10:58:59.084Z,36.00
2023-02-21T11:01:26.849Z,35.80
2023-02-21T11:04:04.313Z,34.10
2023-02-21T11:06:31.052Z,34.70
2023-02-21T11:08:58.766Z,35.00
2023-02-21T11:11:38.578Z,34.60
2023-02-21T11:14:25.153Z,34.10
2023-02-21T11:17:09.843Z,34.60
2023-02-21T11:20:07.661Z,34.10
2023-02-21T11:22:34.906Z,33.00
2023-02-21T11:25:20.251Z,32.50
2023-02-21T11:28:01.829Z,32.30
2023-02-21T11:30:30.205Z,33.00
2023-02-21T11:32:59.910Z,32.50
2023-02-21T11:35:33.883Z,33.30
2023-02-21T11:38:06.692Z,33.10
2023-02-21T11:40:43.117Z,33.50
2023-02-21T11:43:10.928Z,33.30
2023-02-21T11:45:42.972Z,33.30
2023-02-21T11:48:18.016Z,33.50
2023-02-21T11:50:50.687Z,33.00
2023-02-21T11:53:31.117Z,32.80
2023-02-21T11:56:16.080Z,33.10
2023-02-21T11:58:48.538Z,33.20
2023-02-21T12:01:22.037Z,32.70
2023-02-21T12:04:04.058Z,32.50
2023-02-21T12:06:36.508Z,32.50
2023-02-21T12:09:26.039Z,33.10
2023-02-21T12:12:12.594Z,33.00
2023-02-21T12:15:17.439Z,32.70
2023-02-21T12:18:19.565Z,32.60
2023-02-21T12:21:10.590Z,32.70
2023-02-21T12:23:59.800Z,33.00
2023-02-21T12:26:55.248Z,32.90
2023-02-21T12:30:04.107Z,32.10
2023-02-21T12:32:42.709Z,32.50
2023-02-21T12:35:27.965Z,32.90
2023-02-21T12:38:22.642Z,32.90
2023-02-21T12:41:27.493Z,32.00
2023-02-21T12:44:15.183Z,32.20
2023-02-21T12:47:02.569Z,33.30
2023-02-21T12:49:52.123Z,33.40
2023-02-21T12:52:30.872Z,33.40
2023-02-21T12:55:05.664Z,32.80
2023-02-21T12:57:59.628Z,32.70
2023-02-21T13:00:38.864Z,32.40
2023-02-21T13:03:17.685Z,32.90
2023-02-21T13:05:52.469Z,33.10
2023-02-21T13:08:27.654Z,33.00
2023-02-21T13:11:06.317Z,33.70
2023-02-21T13:13:34.034Z,33.20
2023-02-21T13:16:04.114Z,33.20
2023-02-21T13:18:45.027Z,32.70
2023-02-21T13:21:37.520Z,32.10
2023-02-21T13:24:38.015Z,32.60
2023-02-21T13:27:29.228Z,33.30
2023-02-21T13:30:13.539Z,33.10
2023-02-21T13:32:49.379Z,33.10
2023-02-21T13:35:22.246Z,32.60
2023-02-21T13:37:51.710Z,31.90
2023-02-21T13:40:34.834Z,32.60
2023-02-21T13:43:10.284Z,32.30
2023-02-21T13:45:37.031Z,32.10
2023-02-21T13:48:06.727Z,32.70
2023-02-21T13:50:40.040Z,32.40
2023-02-21T13:53:16.482Z,32.20
2023-02-21T13:56:08.170Z,32.00
2023-02-21T13:58:40.608Z,31.60
2023-02-21T14:01:18.923Z,31.40
2023-02-21T14:03:45.805Z,30.90
2023-02-21T14:06:12.522Z,30.70
2023-02-21T14:08:50.552Z,30.30
2023-02-21T14:11:26.946Z,30.20
2023-02-21T14:14:03.169Z,29.60
2023-02-21T14:16:29.928Z,29.00
2023-02-21T14:19:01.476Z,28.10
2023-02-21T14:24:22.983Z,25.50
2023-02-21T14:26:57.816Z,24.20
2023-02-21T14:29:39.937Z,23.00
2023-02-21T14:32:09.717Z,22.00
2023-02-21T14:34:48.287Z,21.30
2023-02-21T14:37:33.309Z,20.50
2023-02-21T14:40:21.530Z,19.60
2023-02-21T14:43:02.481Z,19.60
2023-02-21T14:45:49.797Z,18.90
2023-02-21T14:48:44.544Z,18.50
2023-02-21T14:51:29.940Z,18.20
2023-02-21T14:54:14.298Z,18.20
2023-02-21T14:57:15.905Z,18.20
2023-02-21T15:00:13.146Z,18.20
2023-02-21T15:03:10.100Z,18.20
2023-02-21T15:05:54.760Z,18.10
2023-02-21T15:08:24.507Z,18.10
2023-02-21T15:10:59.255Z,18.40
2023-02-21T15:13:27.524Z,18.10
2023-02-21T15:16:05.081Z,18.00
2023-02-21T15:18:34.835Z,18.20
2023-02-21T15:21:10.628Z,18.30
2023-02-21T15:23:39.873Z,18.30
2023-02-21T15:26:39.474Z,18.40
2023-02-21T15:29:07.885Z,18.40
2023-02-21T15:31:39.639Z,18.40
2023-02-21T15:34:06.612Z,18.10
2023-02-21T15:36:33.632Z,18.40
2023-02-21T15:39:06.123Z,18.90
2023-02-21T15:41:38.724Z,18.90
2023-02-21T15:44:13.981Z,19.10
2023-02-21T15:46:43.527Z,19.70
2023-02-21T15:49:21.159Z,20.20
2023-02-21T15:51:52.335Z,20.40
2023-02-21T15:54:45.971Z,20.60
2023-02-21T15:57:12.720Z,20.80
2023-02-21T15:59:39.832Z,21.20
2023-02-21T16:02:09.723Z,21.40
2023-02-21T16:04:41.609Z,22.00
2023-02-21T16:07:50.375Z,22.40
2023-02-21T16:18:34.805Z,27.20
2023-02-21T16:21:19.444Z,29.50
2023-02-21T16:23:46.432Z,31.10
2023-02-21T16:26:13.219Z,32.40
2023-02-21T16:28:41.467Z,33.80
2023-02-21T16:31:14.881Z,34.90
2023-02-21T16:33:42.419Z,35.60
2023-02-21T16:36:20.444Z,36.70
2023-02-21T16:38:47.206Z,37.80
2023-02-21T16:41:30.270Z,38.70
2023-02-21T16:43:58.236Z,40.10
2023-02-21T16:46:29.661Z,41.10
2023-02-21T16:48:58.803Z,41.90
2023-02-21T16:51:35.072Z,42.10
2023-02-21T16:54:04.017Z,42.60
2023-02-21T16:56:41.733Z,43.00
2023-02-21T16:59:17.194Z,43.50
2023-02-21T17:01:44.033Z,44.20
2023-02-21T17:04:26.898Z,44.60
2023-02-21T17:06:59.802Z,45.20
2023-02-21T17:09:28.872Z,45.60
2023-02-21T17:11:55.869Z,46.20
2023-02-21T17:14:22.814Z,46.80
2023-02-21T17:16:49.526Z,47.40
2023-02-21T17:19:19.273Z,47.80
2023-02-21T17:21:46.070Z,48.50
2023-02-21T17:24:14.771Z,48.90
2023-02-21T17:26:41.810Z,49.40
2023-02-21T17:29:09.166Z,50.00
2023-02-21T17:31:36.184Z,50.40
2023-02-21T17:34:04.147Z,50.70
2023-02-21T17:36:31.016Z,51.20
2023-02-21T17:38:59.019Z,51.50
2023-02-21T17:41:26.445Z,51.60
2023-02-21T17:43:55.624Z,51.50
2023-02-21T17:46:22.557Z,51.90
2023-02-21T17:48:54.520Z,52.10
2023-02-21T17:51:26.850Z,52.20
2023-02-21T17:53:54.120Z,52.50
2023-02-21T17:56:24.348Z,52.70
2023-02-21T17:58:51.265Z,53.10
2023-02-21T18:01:19.696Z,53.60
2023-02-21T18:03:48.216Z,53.70
2023-02-21T18:06:16.150Z,54.50
2023-02-21T18:08:47.038Z,54.10
2023-02-21T18:11:16.353Z,54.80
2023-02-21T18:13:43.597Z,54.60
2023-02-21T18:16:11.391Z,54.70
2023-02-21T18:18:38.071Z,55.20
2023-02-21T18:21:05.243Z,55.70
2023-02-21T18:23:33.585Z,56.90
2023-02-21T18:26:01.261Z,57.30
2023-02-21T18:28:29.071Z,56.80
2023-02-21T18:31:00.042Z,55.90
2023-02-21T18:33:27.283Z,56.20
2023-02-21T18:35:58.316Z,56.60
2023-02-21T18:38:26.504Z,57.40
2023-02-21T18:41:00.346Z,57.40
2023-02-21T18:43:28.925Z,57.50
2023-02-21T18:45:57.627Z,57.40
2023-02-21T18:48:25.628Z,57.70
2023-02-21T18:50:52.624Z,58.30
2023-02-21T18:53:19.663Z,58.60
2023-02-21T18:55:46.360Z,58.70
2023-02-21T18:58:13.111Z,58.30
2023-02-21T19:00:40.847Z,58.30
2023-02-21T19:03:08.615Z,58.90
2023-02-21T19:05:35.456Z,59.10
2023-02-21T19:08:02.214Z,59.00
2023-02-21T19:10:29.660Z,59.20
2023-02-21T19:13:01.799Z,59.60
2023-02-21T19:15:30.703Z,60.50
2023-02-21T19:17:58.854Z,60.60
2023-02-21T19:20:25.663Z,61.00
2023-02-21T19:22:52.623Z,60.30
2023-02-21T19:25:19.412Z,60.20
2023-02-21T19:27:47.305Z,59.90
2023-02-21T19:30:14.486Z,60.40
2023-02-21T19:32:41.175Z,61.30
2023-02-21T19:35:08.504Z,61.00
2023-02-21T19:37:36.034Z,61.60
2023-02-21T19:40:06.834Z,61.70
2023-02-21T19:42:35.355Z,61.80
2023-02-21T19:45:02.112Z,61.80
2023-02-21T19:47:29.700Z,61.70
2023-02-21T19:49:56.523Z,61.80
2023-02-21T19:52:23.247Z,62.00
2023-02-21T19:54:49.931Z,62.30
2023-02-21T19:57:16.682Z,62.90
2023-02-21T19:59:43.467Z,62.30
2023-02-21T20:02:12.188Z,62.00
2023-02-21T20:04:39.775Z,61.30
2023-02-21T20:07:06.444Z,61.70
2023-02-21T20:09:33.119Z,61.50
2023-02-21T20:11:59.772Z,61.80
2023-02-21T20:14:27.319Z,61.70
2023-02-21T20:16:54.063Z,61.60
2023-02-21T20:19:21.894Z,61.60
2023-02-21T20:21:51.241Z,61.70
2023-02-21T20:24:19.066Z,61.60
2023-02-21T20:26:52.778Z,61.40
2023-02-21T20:29:20.534Z,61.50
2023-02-21T20:31:47.809Z,61.30
2023-02-21T20:34:14.965Z,63.80
2023-02-21T20:36:43.415Z,63.20
2023-02-21T20:39:28.772Z,63.30
2023-02-21T20:41:56.530Z,63.80
2023-02-21T20:44:24.074Z,63.20
2023-02-21T20:46:50.840Z,62.70
2023-02-21T20:49:21.348Z,62.20
2023-02-21T20:51:49.168Z,62.70
2023-02-21T20:54:20.041Z,62.90
2023-02-21T20:56:48.622Z,63.60
2023-02-21T20:59:22.371Z,64.50
2023-02-21T21:01:49.238Z,64.30
2023-02-21T21:04:22.713Z,62.60
2023-02-21T21:06:49.434Z,62.90
2023-02-21T21:09:17.848Z,63.90
2023-02-21T21:11:45.493Z,66.90
2023-02-21T21:14:16.295Z,67.40
2023-02-21T21:16:43.400Z,66.00
2023-02-21T21:19:10.344Z,65.40
2023-02-21T21:21:37.852Z,65.70
2023-02-21T21:24:07.103Z,65.60
2023-02-21T21:26:34.233Z,65.20
2023-02-21T21:29:01.899Z,65.10
2023-02-21T21:31:28.660Z,64.40
2023-02-21T21:33:56.358Z,65.20
2023-02-21T21:36:23.377Z,64.30
2023-02-21T21:38:50.261Z,63.10
2023-02-21T21:41:17.212Z,64.00
2023-02-21T21:43:45.793Z,65.10
2023-02-21T21:46:14.141Z,65.20
2023-02-21T21:48:44.452Z,64.90
2023-02-21T21:51:11.614Z,64.60
2023-02-21T21:53:41.477Z,63.90
2023-02-21T21:56:08.538Z,64.30
2023-02-21T21:58:35.210Z,64.70
2023-02-21T22:01:05.269Z,65.00
2023-02-21T22:03:32.092Z,65.40
2023-02-21T22:06:00.508Z,65.50
2023-02-21T22:08:28.261Z,65.30
2023-02-21T22:10:55.050Z,65.30
2023-02-21T22:13:21.899Z,65.10
2023-02-21T22:15:48.939Z,64.70
2023-02-21T22:18:19.852Z,64.60
2023-02-21T22:20:50.243Z,64.20
2023-02-21T22:23:21.226Z,64.10
2023-02-21T22:25:48.813Z,64.70
2023-02-21T22:28:16.359Z,64.80
2023-02-21T22:30:43.106Z,64.90
2023-02-21T22:33:13.614Z,65.60
2023-02-21T22:35:41.312Z,65.70
2023-02-21T22:38:14.084Z,65.50
2023-02-21T22:40:42.230Z,66.30
2023-02-21T22:43:09.937Z,65.80
2023-02-21T22:45:37.914Z,65.80
2023-02-21T22:48:07.328Z,66.20
2023-02-21T22:50:37.007Z,66.50
2023-02-21T22:53:08.056Z,67.20
2023-02-21T22:55:36.963Z,67.40
2023-02-21T22:58:09.110Z,67.30
2023-02-21T23:00:37.692Z,68.00
2023-02-21T23:03:12.653Z,67.60
2023-02-21T23:05:50.827Z,66.60
2023-02-21T23:08:19.967Z,66.50
2023-02-21T23:10:46.915Z,66.10
2023-02-21T23:13:17.092Z,66.10
2023-02-21T23:15:44.786Z,66.00
2023-02-21T23:18:20.177Z,66.40
2023-02-21T23:20:53.740Z,66.10
2023-02-21T23:23:27.031Z,66.10
2023-02-21T23:25:58.670Z,66.50
2023-02-21T23:28:28.605Z,66.00
2023-02-21T23:30:56.112Z,65.70
2023-02-21T23:33:26.164Z,66.10
2023-02-21T23:35:55.462Z,66.30
2023-02-21T23:38:25.352Z,65.70
2023-02-21T23:40:56.065Z,65.50
2023-02-21T23:43:30.928Z,65.20
2023-02-21T23:45:58.801Z,64.90
2023-02-21T23:48:25.536Z,65.30
2023-02-21T23:50:57.364Z,66.10
2023-02-21T23:53:27.700Z,65.70
2023-02-21T23:56:00.364Z,65.80
2023-02-21T23:58:33.859Z,65.30
